Time;durP1;ratioP1;P1;durP2;ratioP2;P2;SDS_P1;SDS_P2;PMS_P1;PMS_P2;Temp;Humidity;BMP_temperature;BMP_pressure;BME280_temperature;BME280_humidity;BME280_pressure;Samples;Min_cycle;Max_cycle;Signal;HPM_P1;HPM_P2
2022/08/08 00:00:21;;;;;;;5.07;2.60;;;27.40;99.90;;;;;;5052485;28;20028;-73
2022/08/08 00:03:14;;;;;;;6.18;2.30;;;27.40;99.90;;;;;;5052322;28;20032;-72
2022/08/08 00:06:00;;;;;;;4.10;2.50;;;27.30;99.90;;;;;;5052594;28;20535;-74
2022/08/08 00:08:49;;;;;;;4.43;2.70;;;27.40;99.90;;;;;;5052295;28;20021;-72
2022/08/08 00:11:32;;;;;;;6.70;2.88;;;27.30;99.90;;;;;;5052441;28;20025;-71
2022/08/08 00:14:04;;;;;;;5.82;2.50;;;27.30;99.90;;;;;;5052348;28;20025;-72
2022/08/08 00:16:51;;;;;;;4.70;2.67;;;27.20;99.90;;;;;;5052208;28;20446;-72
2022/08/08 00:19:46;;;;;;;6.32;2.80;;;27.20;99.90;;;;;;5050454;28;20060;-72
2022/08/08 00:22:32;;;;;;;5.93;2.70;;;27.20;99.90;;;;;;5052058;28;20112;-74
2022/08/08 00:25:05;;;;;;;4.57;2.60;;;27.20;99.90;;;;;;5051880;28;20076;-73
2022/08/08 00:27:34;;;;;;;4.28;2.70;;;27.30;99.90;;;;;;5051896;28;20057;-72
2022/08/08 00:30:05;;;;;;;4.80;2.40;;;27.30;99.90;;;;;;5051772;28;20021;-72
2022/08/08 00:32:34;;;;;;;6.55;2.70;;;27.30;99.90;;;;;;5051619;28;20051;-72
2022/08/08 00:35:42;;;;;;;4.55;2.70;;;27.20;99.90;;;;;;5051866;28;20025;-72
2022/08/08 00:38:33;;;;;;;8.20;2.70;;;27.30;99.90;;;;;;5048302;28;20033;-72
2022/08/08 00:41:05;;;;;;;6.72;2.50;;;27.30;99.90;;;;;;5050030;28;20047;-72
2022/08/08 00:44:07;;;;;;;6.13;2.42;;;27.30;99.90;;;;;;5051205;28;20076;-72
2022/08/08 00:47:03;;;;;;;3.70;2.30;;;27.30;99.90;;;;;;5049889;28;20037;-72
2022/08/08 00:49:41;;;;;;;;;;;27.30;99.90;;;;;;5051800;28;20103;-71
2022/08/08 00:52:19;;;;;;;3.80;2.60;;;27.30;99.90;;;;;;5051374;28;20002;-71
2022/08/08 00:55:23;;;;;;;4.18;2.60;;;27.30;99.90;;;;;;5051379;28;20017;-73
2022/08/08 00:58:08;;;;;;;5.00;2.70;;;27.30;99.90;;;;;;5051034;28;20119;-72
2022/08/08 01:01:07;;;;;;;6.93;2.70;;;27.40;99.90;;;;;;5051088;28;20040;-72
2022/08/08 01:04:05;;;;;;;5.10;2.70;;;27.30;99.90;;;;;;5050768;28;20033;-72
2022/08/08 01:06:57;;;;;;;7.65;2.80;;;27.30;99.90;;;;;;5050986;28;20107;-72
2022/08/08 01:09:51;;;;;;;4.70;2.80;;;27.30;99.90;;;;;;5051122;28;20419;-72
2022/08/08 01:12:36;;;;;;;7.53;3.13;;;27.40;99.90;;;;;;5039543;28;20067;-73
2022/08/08 01:15:23;;;;;;;4.20;2.50;;;27.30;99.90;;;;;;5050666;28;20430;-73
2022/08/08 01:18:43;;;;;;;4.30;2.67;;;27.30;99.90;;;;;;5050960;28;20668;-72
2022/08/08 01:21:45;;;;;;;4.85;2.90;;;27.30;99.90;;;;;;5028715;28;20151;-72
2022/08/08 01:24:38;;;;;;;4.05;2.50;;;27.30;99.90;;;;;;5025324;28;20050;-73
2022/08/08 01:27:13;;;;;;;6.72;2.78;;;27.20;99.90;;;;;;5011786;28;20082;-72
2022/08/08 01:30:08;;;;;;;4.55;2.78;;;27.20;99.90;;;;;;5028778;28;20029;-73
2022/08/08 01:33:11;;;;;;;5.10;2.80;;;27.20;99.90;;;;;;5028849;28;20172;-72
2022/08/08 01:36:18;;;;;;;6.28;2.83;;;27.30;99.90;;;;;;5028311;28;20037;-72
2022/08/08 01:39:18;;;;;;;5.50;2.55;;;27.30;99.90;;;;;;4950644;29;20046;-72
2022/08/08 01:41:54;;;;;;;4.88;2.53;;;27.40;99.90;;;;;;4950322;28;20074;-72
2022/08/08 01:44:46;;;;;;;5.75;2.80;;;27.40;99.90;;;;;;4950242;29;20031;-72
2022/08/08 01:47:44;;;;;;;3.85;2.53;;;27.40;99.90;;;;;;4950555;29;20050;-72
2022/08/08 01:50:19;;;;;;;5.57;2.80;;;27.40;99.90;;;;;;4950571;29;20122;-72
2022/08/08 01:53:12;;;;;;;5.88;2.70;;;27.30;99.90;;;;;;4950470;29;20079;-72
2022/08/08 01:56:16;;;;;;;4.55;2.63;;;27.30;99.90;;;;;;4982643;28;20121;-73
2022/08/08 01:59:10;;;;;;;5.50;2.83;;;27.30;99.90;;;;;;4989221;28;20085;-72
2022/08/08 02:02:05;;;;;;;4.50;2.60;;;27.30;99.90;;;;;;4989016;28;20053;-73
2022/08/08 02:05:08;;;;;;;4.57;2.60;;;27.30;99.90;;;;;;4989065;28;20035;-73
2022/08/08 02:07:45;;;;;;;4.03;2.75;;;27.30;99.90;;;;;;4989147;28;20530;-73
2022/08/08 02:10:39;;;;;;;9.40;2.88;;;27.30;99.90;;;;;;4989102;28;20115;-73
2022/08/08 02:13:57;;;;;;;3.78;2.60;;;27.40;99.90;;;;;;4983342;28;20042;-73
2022/08/08 02:16:36;;;;;;;4.93;3.00;;;27.40;99.90;;;;;;5005479;28;20042;-73
2022/08/08 02:19:17;;;;;;;4.18;2.78;;;27.30;99.90;;;;;;5008547;28;20455;-73
2022/08/08 02:25:12;;;;;;;7.97;3.00;;;27.30;99.90;;;;;;5008114;28;20054;-73
2022/08/08 02:27:57;;;;;;;6.95;2.88;;;27.20;99.90;;;;;;5007882;28;20180;-73
2022/08/08 02:30:48;;;;;;;4.10;2.80;;;27.30;99.90;;;;;;5008329;28;20121;-72
2022/08/08 02:33:39;;;;;;;5.63;2.55;;;27.20;99.90;;;;;;4991448;28;20038;-72
2022/08/08 02:36:28;;;;;;;4.93;3.00;;;27.10;99.90;;;;;;5007735;28;20022;-73
2022/08/08 02:39:35;;;;;;;3.92;2.70;;;27.10;99.90;;;;;;4992153;28;20451;-72
2022/08/08 02:42:32;;;;;;;4.85;2.83;;;27.10;99.90;;;;;;5008215;28;20126;-73
2022/08/08 02:45:35;;;;;;;6.85;3.20;;;27.10;99.90;;;;;;5008211;28;20029;-73
2022/08/08 02:48:29;;;;;;;5.63;3.03;;;27.10;99.90;;;;;;5008111;28;20033;-73
2022/08/08 02:51:22;;;;;;;5.03;2.83;;;27.20;99.90;;;;;;5008121;28;20029;-73
2022/08/08 02:54:13;;;;;;;4.40;2.70;;;27.20;99.90;;;;;;5047208;28;20037;-73
2022/08/08 02:57:13;;;;;;;5.28;2.75;;;27.20;99.90;;;;;;5053560;28;20016;-73
2022/08/08 03:00:14;;;;;;;4.60;2.95;;;27.30;99.90;;;;;;5053651;28;20033;-73
2022/08/08 03:02:49;;;;;;;4.00;2.88;;;27.30;99.90;;;;;;5053476;28;20025;-73
2022/08/08 03:05:37;;;;;;;5.05;2.80;;;27.30;99.90;;;;;;5053321;28;20025;-72
2022/08/08 03:08:57;;;;;;;6.18;2.85;;;27.20;99.90;;;;;;5053225;28;20036;-73
2022/08/08 03:12:00;;;;;;;4.82;2.90;;;27.20;99.90;;;;;;5053311;28;20021;-73
2022/08/08 03:15:01;;;;;;;4.18;3.08;;;27.20;99.90;;;;;;5053642;28;20446;-72
2022/08/08 03:17:54;;;;;;;5.70;2.95;;;27.10;99.90;;;;;;5053735;28;20044;-73
2022/08/08 03:20:19;;;;;;;3.83;2.75;;;27.10;99.90;;;;;;5052042;28;20083;-72
2022/08/08 03:22:51;;;;;;;5.68;2.78;;;27.10;99.90;;;;;;5051925;28;20037;-72
2022/08/08 03:25:21;;;;;;;6.90;3.10;;;27.10;99.90;;;;;;5053855;28;20057;-72
2022/08/08 03:27:58;;;;;;;6.15;2.78;;;27.00;99.90;;;;;;5053755;28;20442;-72
2022/08/08 03:30:25;;;;;;;4.57;2.70;;;27.00;99.90;;;;;;5054329;28;20025;-71
2022/08/08 03:35:40;;;;;;;7.07;2.72;;;27.00;99.90;;;;;;5053799;28;20031;-72
2022/08/08 03:38:07;;;;;;;6.35;3.17;;;27.00;99.90;;;;;;5053395;28;20025;-73
2022/08/08 03:40:34;;;;;;;4.47;3.20;;;27.00;99.90;;;;;;5053693;28;20473;-72
2022/08/08 03:43:01;;;;;;;6.35;3.17;;;27.00;99.90;;;;;;5052672;28;20037;-72
2022/08/08 03:45:28;;;;;;;4.18;3.03;;;27.00;99.90;;;;;;5052292;28;20413;-72
2022/08/08 03:48:03;;;;;;;5.72;3.33;;;27.00;99.90;;;;;;5053048;28;20028;-72
2022/08/08 03:50:31;;;;;;;6.30;2.92;;;27.00;99.90;;;;;;5053791;28;20377;-72
2022/08/08 03:53:09;;;;;;;4.78;3.33;;;27.00;99.90;;;;;;5053309;28;20492;-73
2022/08/08 03:55:41;;;;;;;7.15;3.38;;;27.00;99.90;;;;;;5053188;28;20055;-73
2022/08/08 03:58:08;;;;;;;4.68;3.05;;;27.00;99.90;;;;;;5053272;28;20552;-73
2022/08/08 04:00:35;;;;;;;6.38;3.13;;;27.00;99.90;;;;;;5053443;28;20040;-73
2022/08/08 04:03:04;;;;;;;5.88;3.25;;;27.00;99.90;;;;;;5052994;28;20096;-73
2022/08/08 04:05:32;;;;;;;5.20;3.28;;;27.00;99.90;;;;;;5050732;28;20029;-73
2022/08/08 04:08:00;;;;;;;5.47;3.03;;;27.00;99.90;;;;;;5052141;28;20358;-73
2022/08/08 04:10:27;;;;;;;5.60;3.30;;;27.00;99.90;;;;;;5053544;28;20032;-73
2022/08/08 04:12:54;;;;;;;4.78;3.30;;;27.00;99.90;;;;;;5053058;28;20041;-73
2022/08/08 04:15:21;;;;;;;4.30;3.00;;;27.00;99.90;;;;;;5053280;28;20075;-73
2022/08/08 04:17:47;;;;;;;6.20;3.20;;;27.00;99.90;;;;;;5053342;28;20025;-73
2022/08/08 04:20:13;;;;;;;6.30;3.05;;;27.00;99.90;;;;;;5053738;28;20067;-73
2022/08/08 04:22:40;;;;;;;;;;;27.10;99.90;;;;;;5054087;28;20386;-73
2022/08/08 04:25:07;;;;;;;5.85;3.10;;;27.20;99.90;;;;;;5053016;28;19921;-73
2022/08/08 04:27:34;;;;;;;6.72;3.20;;;27.20;99.90;;;;;;5053380;28;20381;-73
2022/08/08 04:30:02;;;;;;;6.35;3.05;;;27.30;99.90;;;;;;5053140;28;20029;-73
2022/08/08 04:32:28;;;;;;;5.53;2.95;;;27.20;99.90;;;;;;5053114;28;20500;-73
2022/08/08 04:34:54;;;;;;;6.45;3.10;;;27.20;99.90;;;;;;5053599;28;20414;-73
2022/08/08 04:37:20;;;;;;;7.22;3.25;;;27.10;99.90;;;;;;5053185;28;20025;-73
2022/08/08 04:39:46;;;;;;;5.53;3.15;;;27.10;99.90;;;;;;5053847;28;20017;-72
2022/08/08 04:42:12;;;;;;;5.03;3.38;;;27.10;99.90;;;;;;5054145;28;20060;-73
2022/08/08 04:44:38;;;;;;;6.55;2.90;;;27.20;99.90;;;;;;5054099;28;20028;-73
2022/08/08 04:47:05;;;;;;;5.53;3.10;;;27.20;99.90;;;;;;5054021;28;20063;-73
2022/08/08 04:49:31;;;;;;;6.47;3.40;;;27.20;99.90;;;;;;5053909;28;20032;-73
2022/08/08 04:51:57;;;;;;;6.40;3.25;;;27.30;99.90;;;;;;5052309;28;20081;-73
2022/08/08 04:54:23;;;;;;;6.30;3.13;;;27.30;99.90;;;;;;5053433;28;20029;-73
2022/08/08 04:56:49;;;;;;;6.43;3.15;;;27.20;99.90;;;;;;5053309;28;20029;-73
2022/08/08 04:59:15;;;;;;;4.80;3.10;;;27.30;99.90;;;;;;5053267;28;20056;-73
2022/08/08 05:01:41;;;;;;;9.15;4.30;;;27.20;99.90;;;;;;5053319;28;20037;-73
2022/08/08 05:04:07;;;;;;;5.53;3.92;;;27.20;99.90;;;;;;5053304;28;20032;-73
2022/08/08 05:06:34;;;;;;;5.50;3.67;;;27.20;99.90;;;;;;5053161;28;20047;-72
2022/08/08 05:09:00;;;;;;;;;;;27.20;99.90;;;;;;5053582;28;20029;-73
2022/08/08 05:11:26;;;;;;;;;;;27.20;99.90;;;;;;5053559;28;19905;-73
2022/08/08 05:13:52;;;;;;;6.88;3.88;;;27.30;99.90;;;;;;5052210;28;20012;-72
2022/08/08 05:16:18;;;;;;;8.48;3.67;;;27.30;99.90;;;;;;5052466;28;20025;-73
2022/08/08 05:18:44;;;;;;;6.05;3.25;;;27.40;99.90;;;;;;5052311;28;20086;-73
2022/08/08 05:21:11;;;;;;;6.03;3.47;;;27.80;99.90;;;;;;5050958;28;20029;-73
2022/08/08 05:23:37;;;;;;;4.75;2.90;;;28.80;99.90;;;;;;5052254;28;20080;-73
2022/08/08 05:26:03;;;;;;;5.55;2.85;;;30.30;99.90;;;;;;5052212;28;20114;-73
2022/08/08 05:28:29;;;;;;;6.90;2.75;;;31.60;99.90;;;;;;5052026;28;20104;-73
2022/08/08 05:30:55;;;;;;;5.93;2.40;;;33.10;97.10;;;;;;5052399;28;20450;-73
2022/08/08 05:33:21;;;;;;;;;;;33.90;94.50;;;;;;5051084;28;20021;-73
2022/08/08 05:35:48;;;;;;;8.15;2.55;;;33.90;93.30;;;;;;5052539;28;20447;-73
2022/08/08 05:38:16;;;;;;;6.78;2.45;;;34.50;92.80;;;;;;5052653;28;20052;-73
2022/08/08 05:40:48;;;;;;;5.88;2.10;;;35.10;91.10;;;;;;5051908;28;20056;-73
2022/08/08 05:43:23;;;;;;;4.22;2.10;;;35.90;90.10;;;;;;5052491;28;20040;-73
2022/08/08 05:45:49;;;;;;;5.75;2.08;;;36.60;87.10;;;;;;5052409;28;20434;-73
2022/08/08 05:48:16;;;;;;;5.03;2.10;;;37.50;85.50;;;;;;5051804;28;20048;-71
2022/08/08 05:50:43;;;;;;;5.28;2.30;;;38.10;82.80;;;;;;5049635;28;20031;-72
2022/08/08 05:53:09;;;;;;;4.55;1.67;;;39.10;80.80;;;;;;5051866;28;20029;-72
2022/08/08 05:55:36;;;;;;;5.72;1.70;;;39.70;77.80;;;;;;5051009;28;20540;-73
2022/08/08 05:58:04;;;;;;;4.40;1.83;;;40.80;76.00;;;;;;5050283;28;20029;-73
2022/08/08 06:00:32;;;;;;;4.70;1.70;;;41.70;73.80;;;;;;5051118;28;20049;-73
2022/08/08 06:03:09;;;;;;;4.72;1.80;;;42.50;71.30;;;;;;5050225;28;20426;-73
2022/08/08 06:05:42;;;;;;;6.03;1.90;;;43.20;69.10;;;;;;5050833;28;20021;-73
2022/08/08 06:08:11;;;;;;;7.60;1.90;;;43.30;67.60;;;;;;5051570;28;20134;-73
2022/08/08 06:10:39;;;;;;;13.10;2.60;;;42.70;67.10;;;;;;5050888;28;20035;-72
2022/08/08 06:13:07;;;;;;;6.68;1.80;;;41.80;68.10;;;;;;5051845;28;20104;-73
2022/08/08 06:15:35;;;;;;;4.90;1.92;;;41.00;70.70;;;;;;5050909;28;20029;-73
2022/08/08 06:18:02;;;;;;;4.88;2.00;;;40.60;69.70;;;;;;5051489;28;20027;-73
2022/08/08 06:20:29;;;;;;;7.72;1.85;;;40.70;70.10;;;;;;5050749;28;20084;-72
2022/08/08 06:22:55;;;;;;;6.57;1.88;;;40.40;70.80;;;;;;5051638;28;20118;-72
2022/08/08 06:25:22;;;;;;;7.50;2.15;;;40.40;70.80;;;;;;5051067;28;20091;-72
2022/08/08 06:27:54;;;;;;;5.70;1.80;;;39.90;70.50;;;;;;5051452;28;20103;-72
2022/08/08 06:30:20;;;;;;;6.57;1.90;;;40.80;69.70;;;;;;5054583;28;20428;-72
2022/08/08 06:32:56;;;;;;;7.28;1.80;;;40.40;68.50;;;;;;5055801;28;20029;-72
2022/08/08 06:35:23;;;;;;;6.57;1.88;;;40.10;69.00;;;;;;5055461;28;20373;-72
2022/08/08 06:37:57;;;;;;;6.55;2.05;;;38.90;71.00;;;;;;5054008;28;20584;-72
2022/08/08 06:40:27;;;;;;;4.57;1.83;;;38.80;70.90;;;;;;5055707;28;20025;-72
2022/08/08 06:43:03;;;;;;;4.90;2.20;;;38.20;71.70;;;;;;5055024;28;20290;-72
2022/08/08 06:45:32;;;;;;;5.05;2.13;;;38.40;72.30;;;;;;5055256;28;20029;-72
2022/08/08 06:47:59;;;;;;;7.00;2.05;;;39.70;68.90;;;;;;5054975;28;20036;-72
2022/08/08 06:50:26;;;;;;;6.32;2.00;;;40.40;68.30;;;;;;5055055;28;20016;-72
2022/08/08 06:52:52;;;;;;;5.22;2.08;;;40.00;68.10;;;;;;5055159;28;20078;-73
2022/08/08 06:55:24;;;;;;;9.48;2.10;;;41.00;66.80;;;;;;5055215;28;20040;-73
2022/08/08 06:57:50;;;;;;;6.78;1.80;;;42.10;64.80;;;;;;5055494;28;20013;-73
2022/08/08 07:00:17;;;;;;;4.43;1.92;;;42.20;63.40;;;;;;5055383;28;20033;-73
2022/08/08 07:02:51;;;;;;;5.55;1.88;;;42.30;64.30;;;;;;5055230;28;20024;-73
2022/08/08 07:05:23;;;;;;;4.07;1.85;;;43.00;63.60;;;;;;5055433;28;20032;-73
2022/08/08 07:07:52;;;;;;;4.25;2.03;;;43.10;61.70;;;;;;5055325;28;20112;-73
2022/08/08 07:10:20;;;;;;;5.07;1.85;;;43.90;61.40;;;;;;5054943;28;20485;-74
2022/08/08 07:12:54;;;;;;;7.03;2.00;;;43.00;61.70;;;;;;5054755;28;20024;-73
2022/08/08 07:15:38;;;;;;;5.22;1.80;;;42.90;61.80;;;;;;5055341;28;20458;-73
2022/08/08 07:18:06;;;;;;;7.75;2.20;;;42.20;61.70;;;;;;5055131;28;20029;-73
2022/08/08 07:20:43;;;;;;;5.65;1.80;;;42.80;61.40;;;;;;5054667;28;20154;-73
2022/08/08 07:23:29;;;;;;;3.50;1.80;;;43.30;61.20;;;;;;5055151;28;20037;-73
2022/08/08 07:25:57;;;;;;;6.32;2.10;;;41.90;59.20;;;;;;5054688;28;20130;-73
2022/08/08 07:28:24;;;;;;;7.15;2.20;;;41.50;61.70;;;;;;5055591;28;20032;-73
2022/08/08 07:30:51;;;;;;;6.63;2.08;;;41.00;61.50;;;;;;5055360;28;20013;-72
2022/08/08 07:33:21;;;;;;;10.38;2.15;;;40.30;63.00;;;;;;5054826;28;20029;-73
2022/08/08 07:35:49;;;;;;;4.53;2.30;;;39.80;63.90;;;;;;5053304;28;20047;-72
2022/08/08 07:38:19;;;;;;;11.07;2.50;;;38.90;63.70;;;;;;5054228;28;20067;-72
2022/08/08 07:40:47;;;;;;;4.40;2.22;;;37.80;67.00;;;;;;5052847;28;20031;-72
2022/08/08 07:43:14;;;;;;;6.03;2.53;;;37.60;68.10;;;;;;5054380;28;20041;-72
2022/08/08 07:45:42;;;;;;;6.50;2.75;;;37.60;68.70;;;;;;5054263;28;20021;-73
2022/08/08 07:48:08;;;;;;;5.45;2.80;;;36.70;65.30;;;;;;5054196;28;20029;-73
2022/08/08 07:50:37;;;;;;;5.22;2.80;;;36.50;65.30;;;;;;5054189;28;20412;-72
2022/08/08 07:53:26;;;;;;;5.97;2.67;;;36.30;65.30;;;;;;5054278;28;20025;-72
2022/08/08 07:55:56;;;;;;;5.18;2.92;;;36.10;65.90;;;;;;5053847;28;20028;-73
2022/08/08 07:58:29;;;;;;;5.88;2.85;;;35.90;67.30;;;;;;5053939;28;20075;-73
2022/08/08 08:01:04;;;;;;;6.90;2.88;;;36.40;67.60;;;;;;5053906;28;20032;-72
2022/08/08 08:04:05;;;;;;;3.83;2.77;;;35.90;67.90;;;;;;5053786;28;20040;-73
2022/08/08 08:06:35;;;;;;;4.07;2.92;;;36.00;67.90;;;;;;5050225;28;20116;-72
2022/08/08 08:09:22;;;;;;;6.45;2.95;;;36.30;66.90;;;;;;5052115;28;20021;-73
2022/08/08 08:11:50;;;;;;;6.35;3.03;;;36.70;66.60;;;;;;5053692;28;20061;-73
2022/08/08 08:14:35;;;;;;;4.65;2.53;;;37.30;65.70;;;;;;5053419;28;20041;-72
2022/08/08 08:17:01;;;;;;;8.40;3.20;;;37.80;65.00;;;;;;5053859;28;20442;-73
2022/08/08 08:19:31;;;;;;;5.75;2.90;;;38.00;66.30;;;;;;5053920;28;20025;-72
2022/08/08 08:21:57;;;;;;;11.43;3.40;;;38.10;67.50;;;;;;5053807;28;20043;-73
2022/08/08 08:24:23;;;;;;;20.50;3.40;;;38.20;68.70;;;;;;5053838;28;20067;-72
2022/08/08 08:26:49;;;;;;;6.72;2.80;;;37.90;69.10;;;;;;5054234;28;20049;-72
2022/08/08 08:29:15;;;;;;;8.82;2.88;;;37.50;69.70;;;;;;5053582;28;20032;-72
2022/08/08 08:31:41;;;;;;;11.82;3.00;;;37.60;71.60;;;;;;5054092;28;20044;-72
2022/08/08 08:34:08;;;;;;;10.95;3.13;;;37.90;71.00;;;;;;5053196;28;20108;-73
2022/08/08 08:36:34;;;;;;;7.53;2.90;;;38.10;70.70;;;;;;5053380;28;20032;-73
2022/08/08 08:39:00;;;;;;;40.70;3.83;;;38.40;70.20;;;;;;5054028;28;20029;-72
2022/08/08 08:41:28;;;;;;;5.40;3.05;;;38.10;70.90;;;;;;5053701;28;20024;-74
2022/08/08 08:43:57;;;;;;;10.77;3.15;;;38.00;72.20;;;;;;5053607;28;20036;-72
2022/08/08 08:46:24;;;;;;;9.13;3.42;;;37.90;71.90;;;;;;5053571;28;20055;-72
2022/08/08 08:48:51;;;;;;;7.80;2.90;;;37.60;71.70;;;;;;5053116;28;20040;-72
2022/08/08 08:51:18;;;;;;;9.63;3.20;;;37.50;72.10;;;;;;5052985;28;20025;-72
2022/08/08 08:53:51;;;;;;;4.97;2.80;;;37.70;71.40;;;;;;5052786;28;20040;-72
2022/08/08 08:56:23;;;;;;;7.40;2.83;;;37.80;71.00;;;;;;5052319;28;20025;-72
2022/08/08 08:58:51;;;;;;;7.25;3.30;;;37.70;71.00;;;;;;5052367;28;20134;-73
2022/08/08 09:01:19;;;;;;;9.20;3.25;;;37.60;72.10;;;;;;5051978;28;20099;-73
2022/08/08 09:03:48;;;;;;;10.32;3.30;;;37.90;71.30;;;;;;5052440;28;20037;-72
2022/08/08 09:06:26;;;;;;;5.88;2.70;;;38.00;71.80;;;;;;5052123;28;20090;-73
2022/08/08 09:09:00;;;;;;;7.28;2.90;;;38.00;72.60;;;;;;5051628;28;20095;-72
2022/08/08 09:11:31;;;;;;;7.47;3.30;;;38.10;73.40;;;;;;5051851;28;20017;-72
2022/08/08 09:13:59;;;;;;;14.70;3.20;;;38.00;71.40;;;;;;5051642;28;20387;-73
2022/08/08 09:16:25;;;;;;;8.85;2.88;;;38.00;71.70;;;;;;5051714;28;20303;-73
2022/08/08 09:18:52;;;;;;;8.40;2.97;;;38.10;71.70;;;;;;5052182;28;20071;-72
2022/08/08 09:21:19;;;;;;;9.73;3.13;;;38.10;71.80;;;;;;5051908;28;20075;-73
2022/08/08 09:23:46;;;;;;;6.15;2.97;;;37.70;71.40;;;;;;5052179;28;20049;-72
2022/08/08 09:26:26;;;;;;;8.65;3.47;;;37.50;70.80;;;;;;5051647;28;20044;-73
2022/08/08 09:28:53;;;;;;;9.30;3.17;;;37.50;70.30;;;;;;5052106;28;20333;-72
2022/08/08 09:31:46;;;;;;;13.30;3.08;;;37.80;70.40;;;;;;5050461;28;20075;-72
2022/08/08 09:34:16;;;;;;;4.28;2.70;;;37.80;70.80;;;;;;5052199;28;20027;-72
2022/08/08 09:36:45;;;;;;;4.68;2.80;;;37.80;70.80;;;;;;5051678;28;20032;-74
2022/08/08 09:39:12;;;;;;;7.03;3.17;;;37.70;70.10;;;;;;5051685;28;20439;-72
2022/08/08 09:41:41;;;;;;;10.25;3.30;;;37.60;70.40;;;;;;5051528;28;20025;-72
2022/08/08 09:44:19;;;;;;;5.20;2.72;;;37.40;70.50;;;;;;5051784;28;20108;-72
2022/08/08 09:46:48;;;;;;;6.78;3.00;;;37.20;71.50;;;;;;5052008;28;20037;-72
2022/08/08 09:49:19;;;;;;;5.60;2.83;;;37.00;70.50;;;;;;5051496;28;20029;-72
2022/08/08 09:51:54;;;;;;;6.32;2.72;;;36.90;70.70;;;;;;5051298;28;20033;-73
2022/08/08 09:54:33;;;;;;;7.78;3.10;;;37.00;70.20;;;;;;5051773;28;20021;-73
2022/08/08 09:57:02;;;;;;;5.30;3.03;;;36.60;71.70;;;;;;5052041;28;20100;-73
2022/08/08 09:59:31;;;;;;;8.93;3.30;;;36.50;73.20;;;;;;5051653;28;20028;-72
2022/08/08 10:02:02;;;;;;;6.68;2.88;;;36.20;72.10;;;;;;5051095;28;20036;-72
2022/08/08 10:04:30;;;;;;;9.48;3.05;;;36.10;72.50;;;;;;5053774;28;20075;-72
2022/08/08 10:06:56;;;;;;;9.48;3.30;;;36.30;70.90;;;;;;5055180;28;20041;-72
2022/08/08 10:09:30;;;;;;;10.55;2.90;;;36.40;72.20;;;;;;5054971;28;20474;-72
2022/08/08 10:11:56;;;;;;;7.63;3.20;;;36.40;72.80;;;;;;5055036;28;20134;-72
2022/08/08 10:14:31;;;;;;;10.60;3.47;;;36.20;71.00;;;;;;5055457;28;20024;-72
2022/08/08 10:16:57;;;;;;;8.48;3.20;;;36.10;73.20;;;;;;5055450;28;20461;-72
2022/08/08 10:19:42;;;;;;;7.80;3.35;;;36.10;73.90;;;;;;5055370;28;20349;-72
2022/08/08 10:22:09;;;;;;;5.50;2.80;;;36.10;74.00;;;;;;5055430;28;20188;-72
2022/08/08 10:24:44;;;;;;;7.28;2.90;;;36.20;73.60;;;;;;5055188;28;20632;-72
2022/08/08 10:27:10;;;;;;;;;;;36.10;73.50;;;;;;5056064;28;20025;-71
2022/08/08 10:29:51;;;;;;;9.13;3.13;;;36.00;73.70;;;;;;5055193;28;19950;-71
2022/08/08 10:35:12;;;;;;;5.68;2.88;;;35.90;74.10;;;;;;5055843;28;20039;-72
2022/08/08 10:37:49;;;;;;;4.63;2.70;;;36.00;74.30;;;;;;5055078;28;20037;-72
2022/08/08 10:40:16;;;;;;;5.78;2.53;;;36.10;73.60;;;;;;5055288;28;20111;-72
2022/08/08 10:42:44;;;;;;;6.60;2.67;;;36.20;73.40;;;;;;5055731;28;20404;-72
2022/08/08 10:45:10;;;;;;;6.30;2.95;;;36.30;73.10;;;;;;5055023;28;20021;-73
2022/08/08 10:47:37;;;;;;;5.32;2.92;;;36.10;73.80;;;;;;5055161;28;20024;-72
2022/08/08 10:50:06;;;;;;;6.50;2.80;;;35.90;74.80;;;;;;5055017;28;20017;-72
2022/08/08 10:52:34;;;;;;;4.97;2.75;;;35.80;75.70;;;;;;5053841;28;20021;-72
2022/08/08 10:55:06;;;;;;;12.48;2.58;;;35.80;75.50;;;;;;5054645;28;20029;-72
2022/08/08 10:57:47;;;;;;;3.92;2.55;;;35.70;74.70;;;;;;5054359;28;20376;-72
2022/08/08 11:00:24;;;;;;;5.22;2.95;;;35.80;72.70;;;;;;5054202;28;20029;-71
2022/08/08 11:02:51;;;;;;;5.18;2.75;;;35.90;72.10;;;;;;5054528;28;20036;-72
2022/08/08 11:05:17;;;;;;;6.15;2.90;;;35.90;72.30;;;;;;5054596;28;20385;-72
2022/08/08 11:08:18;;;;;;;6.25;2.97;;;35.90;73.20;;;;;;5053844;28;20025;-72
2022/08/08 11:10:44;;;;;;;5.95;3.30;;;35.90;75.40;;;;;;5054342;28;20021;-72
2022/08/08 11:13:20;;;;;;;5.53;3.03;;;35.80;72.40;;;;;;5054404;28;20025;-72
2022/08/08 11:15:47;;;;;;;6.13;2.90;;;35.60;73.70;;;;;;5054235;28;20059;-72
2022/08/08 11:18:14;;;;;;;6.78;2.90;;;35.70;72.50;;;;;;5055320;28;20378;-73
2022/08/08 11:20:41;;;;;;;7.68;3.25;;;35.80;72.20;;;;;;5054821;28;20072;-72
2022/08/08 11:23:08;;;;;;;6.28;3.08;;;35.80;74.10;;;;;;5053906;28;20037;-72
2022/08/08 11:25:35;;;;;;;6.65;3.05;;;35.80;72.50;;;;;;5055431;28;20053;-72
2022/08/08 11:28:03;;;;;;;5.47;3.17;;;35.80;72.60;;;;;;5053909;28;20029;-72
2022/08/08 11:30:31;;;;;;;4.90;2.83;;;35.80;73.20;;;;;;5053903;28;20424;-72
2022/08/08 11:33:01;;;;;;;4.85;2.50;;;35.80;73.40;;;;;;5055215;28;20056;-72
2022/08/08 11:35:28;;;;;;;6.20;2.85;;;36.00;76.50;;;;;;5055133;28;20104;-73
2022/08/08 11:37:54;;;;;;;4.43;2.40;;;36.10;76.30;;;;;;5055116;28;20029;-72
2022/08/08 11:40:21;;;;;;;6.80;2.60;;;35.90;78.80;;;;;;5054952;28;20016;-72
2022/08/08 11:42:49;;;;;;;7.32;2.70;;;35.70;80.60;;;;;;5055181;28;20069;-72
2022/08/08 11:46:08;;;;;;;7.55;2.58;;;35.80;81.50;;;;;;5053434;28;20385;-73
2022/08/08 11:48:36;;;;;;;3.88;2.55;;;35.40;81.00;;;;;;5055382;28;20104;-72
2022/08/08 11:51:02;;;;;;;10.38;2.88;;;35.50;82.30;;;;;;5054756;28;20029;-72
2022/08/08 11:53:29;;;;;;;3.45;2.35;;;35.20;82.80;;;;;;5054646;28;20028;-72
2022/08/08 11:55:55;;;;;;;4.22;2.60;;;35.10;82.10;;;;;;5052855;28;20075;-72
2022/08/08 11:58:32;;;;;;;7.53;2.65;;;35.30;80.90;;;;;;5054576;28;20021;-72
2022/08/08 12:00:58;;;;;;;4.00;2.55;;;35.40;80.80;;;;;;5054672;28;20013;-72
2022/08/08 12:03:29;;;;;;;5.20;2.50;;;35.40;81.30;;;;;;5053660;28;20099;-73
2022/08/08 12:05:55;;;;;;;10.30;2.63;;;35.60;84.20;;;;;;5054112;28;20362;-72
2022/08/08 12:08:36;;;;;;;7.80;2.50;;;35.70;83.50;;;;;;5054282;28;20454;-72
2022/08/08 12:11:05;;;;;;;5.32;2.50;;;35.80;80.50;;;;;;5052832;28;20044;-72
2022/08/08 12:13:33;;;;;;;6.70;2.40;;;35.70;80.80;;;;;;5052549;28;20029;-72
2022/08/08 12:16:15;;;;;;;4.07;2.30;;;35.60;81.20;;;;;;5053538;28;20048;-72
2022/08/08 12:18:54;;;;;;;29.33;3.47;;;35.70;82.80;;;;;;5054085;28;20104;-72
2022/08/08 12:21:25;;;;;;;6.75;2.58;;;35.50;81.80;;;;;;5054072;28;20025;-73
2022/08/08 12:24:07;;;;;;;5.63;2.58;;;35.10;86.00;;;;;;5054245;28;20087;-72
2022/08/08 12:26:38;;;;;;;6.57;2.50;;;35.10;83.10;;;;;;5053003;28;20518;-72
2022/08/08 12:29:22;;;;;;;5.97;2.38;;;35.10;83.70;;;;;;5054029;28;20476;-72
2022/08/08 12:32:08;;;;;;;4.55;2.25;;;35.20;87.00;;;;;;5054121;28;20422;-72
2022/08/08 12:34:49;;;;;;;10.75;2.47;;;35.30;85.30;;;;;;5053418;28;20037;-73
2022/08/08 12:37:25;;;;;;;9.10;2.40;;;35.10;83.80;;;;;;5053976;28;20025;-72
2022/08/08 12:39:52;;;;;;;9.30;2.55;;;35.40;83.50;;;;;;5053887;28;20021;-72
2022/08/08 12:42:19;;;;;;;6.90;2.22;;;35.30;83.80;;;;;;5051897;28;20033;-72
2022/08/08 12:44:45;;;;;;;3.33;2.15;;;35.40;84.20;;;;;;5053636;28;20040;-72
2022/08/08 12:47:15;;;;;;;3.63;2.05;;;35.50;83.90;;;;;;5053606;28;20508;-72
2022/08/08 12:49:45;;;;;;;4.88;2.15;;;35.60;81.90;;;;;;5052974;28;20020;-72
2022/08/08 12:52:20;;;;;;;5.65;2.28;;;35.70;79.90;;;;;;5053639;28;20086;-72
2022/08/08 12:54:46;;;;;;;3.78;2.00;;;35.90;81.10;;;;;;5052801;28;20108;-72
2022/08/08 12:57:21;;;;;;;6.05;2.38;;;36.10;80.30;;;;;;5052709;28;20409;-72
2022/08/08 12:59:52;;;;;;;5.03;2.28;;;36.20;80.40;;;;;;5052922;28;20021;-72
2022/08/08 13:02:24;;;;;;;5.30;2.13;;;36.40;74.90;;;;;;5053326;28;20461;-72
2022/08/08 13:04:51;;;;;;;4.75;2.20;;;36.60;75.60;;;;;;5052748;28;20029;-73
2022/08/08 13:07:17;;;;;;;4.30;2.20;;;36.50;75.40;;;;;;5052984;28;20079;-72
2022/08/08 13:10:07;;;;;;;6.53;2.13;;;36.40;74.30;;;;;;5052746;28;20392;-73
2022/08/08 13:12:41;;;;;;;6.20;2.03;;;36.50;74.40;;;;;;5052432;28;20037;-72
2022/08/08 13:15:13;;;;;;;6.32;2.35;;;36.40;73.20;;;;;;5053161;28;20333;-72
2022/08/08 13:17:40;;;;;;;5.75;2.13;;;36.40;75.20;;;;;;5052712;28;20246;-72
2022/08/08 13:20:14;;;;;;;4.55;2.20;;;36.50;75.20;;;;;;5052840;28;20039;-72
2022/08/08 13:22:44;;;;;;;7.88;2.10;;;36.50;76.60;;;;;;5052996;28;20034;-72
2022/08/08 13:25:17;;;;;;;3.63;2.05;;;36.50;77.70;;;;;;5052783;28;20626;-72
2022/08/08 13:27:43;;;;;;;6.97;2.20;;;36.40;78.50;;;;;;5053041;28;20043;-72
2022/08/08 13:30:13;;;;;;;3.92;2.00;;;36.60;79.00;;;;;;5052848;28;20028;-72
2022/08/08 13:32:39;;;;;;;4.97;2.28;;;36.60;76.80;;;;;;5052817;28;20085;-73
2022/08/08 13:35:08;;;;;;;6.63;2.08;;;36.60;77.80;;;;;;5051303;28;20477;-74